• Join FlightAware (Why Join?)
  • Login
  • US Flag 
08:06PM EDT


 

Airport Tracker/Info


-or-


 

Live Flight TrackerFlight Track Log ✈ FLG4274 ✈ 08-Jul-2013 ✈ KDTW - KDLH

Flight Track Log - Related Links

Times and Time Zones

All times are in EDT time to prevent confusion due to time zone crossing. See the FLG4274 flight status page for this flight to view local times or setup timezone preferences in your user account.

Time Position Orientation Groundspeed Altitude Reporting Facility
EDT Latitude Longitude Course Direction KTS MPH feet Rate Location/Type
12:25PM 42.1994 -83.3581 292° West 151 174 1,300  Level Cleveland Center
12:26PM 42.1650 -83.4097 228° Southwest 200 230 3,200 1,560 Climbing Cleveland Center
12:27PM 42.1150 -83.4831 227° Southwest 260 299 4,900 1,980 Climbing Cleveland Center
12:28PM 42.3347 -83.8767 292° West  Level FlightAware Approximate
12:28PM 42.1108 -83.5697 266° West 253 291 7,500  Level Cleveland Center
12:29PM 42.3736 -84.0062 292° West  Level FlightAware Approximate
12:29PM 42.1564 -83.6558 306° West 280 322 9,600  Level Cleveland Center
12:30PM 42.4124 -84.1359 292° West  Level FlightAware Approximate
12:30PM 42.2000 -83.7450 303° West 290 334 11,800  Level Cleveland Center
12:31PM 42.2381 -83.8675 293° West 301 346 12,700 1,080 Climbing Cleveland Center
12:32PM 42.2533 -83.9944 279° West 320 368 14,300 1,440 Climbing Cleveland Center
12:33PM 42.2956 -84.1147 295° West 339 390 15,600 1,320 Climbing Cleveland Center
12:34PM 42.3375 -84.2353 295° West 350 403 17,000 1,080 Climbing Cleveland Center
12:35PM 42.3817 -84.3586 296° West 355 409 17,800 900 Climbing Cleveland Center
12:36PM 42.4358 -84.5231 294° West 376 433 19,200 1,020 Climbing Chicago Center
12:37PM 42.4392 -84.6633 272° West 374 430 20,200 900 Climbing Chicago Center
12:38PM 42.4439 -84.8014 273° West 369 425 21,100 660 Climbing Chicago Center
12:40PM 42.4472 -84.9394 272° West 367 422 21,600 480 Climbing Chicago Center
12:41PM 42.4497 -85.0769 271° West 367 422 22,100 480 Climbing Chicago Center
12:42PM 42.5061 -85.2214 298° West 383 441 22,700 480 Climbing Chicago Center
12:43PM 42.5772 -85.3244 313° West 379 436 23,200 480 Climbing Chicago Center
12:44PM 42.6503 -85.4306 313° West 384 442 23,700 480 Climbing Chicago Center
12:45PM 42.7225 -85.5344 313° West 381 438 24,200 480 Climbing Chicago Center
12:46PM 42.7947 -85.6378 314° West 379 436 24,700 480 Climbing Chicago Center
12:47PM 42.8667 -85.7431 313° West 380 437 25,200 480 Climbing Chicago Center
12:48PM 42.9539 -85.8700 313° West 384 442 25,800 480 Climbing Chicago Center
12:49PM 43.0225 -85.9656 315° West 388 447 26,300 480 Climbing Chicago Center
12:50PM 43.1047 -86.0961 311° West 403 464 26,800 480 Climbing Chicago Center
12:51PM 43.1822 -86.2042 315° West 387 445 27,400 480 Climbing Chicago Center
12:52PM 43.2547 -86.3119 313° West 384 442 27,900 240 Climbing Chicago Center
12:53PM 43.3281 -86.4194 313° West 385 443 28,000  Climbing Chicago Center
12:54PM 43.4031 -86.5317 313° West 400 460 28,000  Level Chicago Center
12:55PM 43.4781 -86.6442 313° West 400 460 28,000  Level Chicago Center
12:56PM 43.5689 -86.7792 313° West 402 463 28,000  Level Chicago Center
12:57PM 43.6450 -86.8936 313° West 404 465 28,000  Level Chicago Center
12:58PM 43.6750 -86.9378 313° West 400 460 28,000  Level Minneapolis Center
12:59PM 43.7517 -87.0536 313° West 407 468 28,000  Level Minneapolis Center
01:00PM 43.8589 -87.2156 313° West 409 471 28,000  Level Minneapolis Center
01:01PM 43.9331 -87.3314 312° West 403 464 28,000  Level Minneapolis Center
01:02PM 44.0081 -87.4467 312° West 403 464 28,000  Level Minneapolis Center
01:03PM 44.0842 -87.5642 312° West 406 467 28,000  Level Minneapolis Center
01:04PM 44.1592 -87.6803 312° West 406 467 28,000  Level Minneapolis Center
01:05PM 44.2469 -87.8178 312° West 407 468 28,000  Level Minneapolis Center
01:06PM 44.3222 -87.9342 312° West 406 467 28,000  Level Minneapolis Center
01:07PM 44.3967 -88.0519 312° West 406 467 28,000  Level Minneapolis Center
01:08PM 44.4717 -88.1711 311° West 408 470 28,000  Level Minneapolis Center
01:09PM 44.5469 -88.2889 312° West 409 471 28,000  Level Minneapolis Center
01:10PM 44.6367 -88.4297 312° West 415 478 28,000  Level Minneapolis Center
01:11PM 44.7253 -88.5733 311° West 418 481 28,000  Level Minneapolis Center
01:13PM 44.8011 -88.6947 311° West 416 479 28,000  Level Minneapolis Center
01:14PM 44.8892 -88.8403 311° West 417 480 28,000  Level Minneapolis Center
01:15PM 44.9647 -88.9636 311° West 416 479 28,000  Level Minneapolis Center
01:16PM 45.0403 -89.0850 311° West 413 475 28,000  Level Minneapolis Center
01:17PM 45.1111 -89.2031 310° West 414 476 28,000  Level Minneapolis Center
01:18PM 45.1869 -89.3236 312° West 411 473 28,000  Level Minneapolis Center
01:19PM 45.2761 -89.4717 311° West 409 471 28,000  Level Minneapolis Center
01:20PM 45.3511 -89.5953 311° West 409 471 28,000  Level Minneapolis Center
01:21PM 45.4253 -89.7208 310° West 411 473 28,000  Level Minneapolis Center
01:22PM 45.5006 -89.8439 311° West 411 473 28,000 -600 Level Minneapolis Center
01:23PM 45.5922 -89.9992 310° West 422 486 26,700 -1,020 Descending Minneapolis Center
01:24PM 45.6675 -90.1264 310° West 419 482 25,700 -1,020 Descending Minneapolis Center
01:25PM 45.7567 -90.2778 310° West 413 475 24,500 -1,200 Descending Minneapolis Center
01:26PM 45.8444 -90.4272 310° West 407 468 23,300 -1,080 Descending Minneapolis Center
01:27PM 45.9158 -90.5517 310° West 404 465 22,300 -1,020 Descending Minneapolis Center
01:28PM 45.9886 -90.6742 311° West 402 463 21,300 -840 Descending Minneapolis Center
01:29PM 46.0578 -90.7953 309° West 396 456 20,600 -600 Descending Minneapolis Center
01:31PM 46.1247 -90.9106 310° West 383 441 20,100 -540 Descending Minneapolis Center
01:32PM 46.1914 -91.0269 310° West 377 434 19,600 -1,200 Descending Minneapolis Center
01:33PM 46.2689 -91.1644 309° West 372 428 17,700 -1,800 Descending Minneapolis Center
01:34PM 46.3353 -91.2817 309° West 376 433 15,900 -1,800 Descending Minneapolis Center
01:35PM 46.3994 -91.3956 309° West 367 422 14,000 -1,860 Descending Minneapolis Center
01:36PM 46.4367 -91.5247 293° West 350 403 12,100 -1,740 Descending Minneapolis Center
01:37PM 46.4703 -91.6353 294° West 322 371 10,500 -1,440 Descending Minneapolis Center
01:38PM 46.5003 -91.7369 293° West 287 330 9,200 -1,680 Descending Minneapolis Center
01:39PM 46.5394 -91.8486 297° West 266 306 7,100 -1,740 Descending Minneapolis Center
01:40PM 46.5694 -91.9414 295° West 260 299 5,700 -1,020 Descending Minneapolis Center
01:41PM 46.5978 -92.0289 295° West 250 288 5,000 -360 Descending Minneapolis Center
01:42PM 46.6261 -92.1078 298° West 230 265 5,000  Level Minneapolis Center
01:43PM 46.6544 -92.1856 298° West 222 255 5,000  Level Minneapolis Center
01:44PM 46.6797 -92.2672 294° West 221 254 5,000 -240 Level Minneapolis Center
01:45PM 46.7094 -92.3631 294° West 219 252 4,600 -540 Descending Minneapolis Center
01:46PM 46.7331 -92.4414 294° West 215 247 4,000 -300 Descending Minneapolis Center
01:47PM 46.7694 -92.5069 309° West 211 243 4,000 -60 Level Minneapolis Center
01:48PM 46.8286 -92.4956 North 212 244 3,900 -360 Descending Minneapolis Center
01:49PM 46.8497 -92.4231 67° East 204 235 3,300 -360 Descending Minneapolis Center
01:50PM 46.8464 -92.3486 94° East 193 222 3,200 -120 Descending Minneapolis Center